createdAt,value
2018-04-19T00:00:05.763Z,46
2018-04-19T00:15:05.332Z,45
2018-04-19T00:30:05.139Z,46
2018-04-19T00:45:04.936Z,51
2018-04-19T01:00:04.756Z,45
2018-04-19T01:15:05.176Z,46
2018-04-19T01:30:04.891Z,46
2018-04-19T01:45:04.968Z,46
2018-04-19T02:00:05.400Z,46
2018-04-19T02:15:05.120Z,46
2018-04-19T02:30:05.312Z,45
2018-04-19T02:45:04.459Z,45
2018-04-19T03:00:05.072Z,46
2018-04-19T03:15:05.138Z,45
2018-04-19T03:30:05.587Z,45
2018-04-19T03:45:05.355Z,46
2018-04-19T04:00:04.591Z,51
2018-04-19T04:15:05.075Z,48
2018-04-19T04:30:04.709Z,50
2018-04-19T04:45:04.811Z,50
2018-04-19T05:00:05.019Z,50
2018-04-19T05:15:04.622Z,51
2018-04-19T05:30:05.111Z,51
2018-04-19T05:45:04.689Z,51
2018-04-19T06:00:05.597Z,51
2018-04-19T06:15:05.193Z,55
2018-04-19T06:30:04.703Z,54
2018-04-19T06:45:05.380Z,56
2018-04-19T07:00:04.691Z,54
2018-04-19T07:15:05.374Z,64
2018-04-19T07:30:05.085Z,63
2018-04-19T07:45:05.271Z,61
2018-04-19T08:00:04.986Z,77
2018-04-19T08:15:05.402Z,44
2018-04-19T08:30:04.886Z,83
2018-04-19T08:45:05.612Z,101
2018-04-19T09:00:04.835Z,112
2018-04-19T09:15:04.895Z,87
2018-04-19T09:30:05.064Z,73
2018-04-19T09:45:10.107Z,66
2018-04-19T10:00:05.447Z,62
2018-04-19T10:15:04.688Z,60
2018-04-19T10:30:04.461Z,63
2018-04-19T10:45:05.139Z,57
2018-04-19T11:00:05.277Z,57
2018-04-19T11:15:05.046Z,55
2018-04-19T11:30:04.881Z,57
2018-04-19T11:45:04.906Z,56
2018-04-19T12:00:04.416Z,62
2018-04-19T12:15:05.136Z,57
2018-04-19T12:30:04.854Z,62
2018-04-19T12:45:04.407Z,56
2018-04-19T13:00:04.526Z,58
2018-04-19T13:15:04.579Z,57
2018-04-19T13:30:05.254Z,59
2018-04-19T13:45:06.125Z,58
2018-04-19T14:00:04.988Z,57
2018-04-19T14:15:11.498Z,57
2018-04-19T14:30:10.184Z,56
2018-04-19T14:45:04.784Z,58
2018-04-19T15:00:05.171Z,55
2018-04-19T15:15:05.088Z,58
2018-04-19T15:30:04.780Z,59
2018-04-19T15:45:04.783Z,55
2018-04-19T16:00:05.249Z,61
2018-04-19T16:15:05.442Z,59
2018-04-19T16:30:05.235Z,61
2018-04-19T16:45:05.266Z,60
2018-04-19T17:00:05.613Z,65
2018-04-19T17:15:04.592Z,63
2018-04-19T17:30:04.798Z,63
2018-04-19T17:45:10.327Z,61
2018-04-19T18:00:04.679Z,66
2018-04-19T18:15:04.783Z,62
2018-04-19T18:30:04.482Z,62
2018-04-19T18:45:05.349Z,56
2018-04-19T19:00:05.454Z,62
2018-04-19T19:15:05.233Z,59
2018-04-19T19:30:04.694Z,57
2018-04-19T19:45:10.293Z,56
2018-04-19T20:00:04.894Z,56
2018-04-19T20:15:04.703Z,54
2018-04-19T20:30:04.616Z,53
2018-04-19T20:45:04.716Z,54
2018-04-19T21:00:04.869Z,52
2018-04-19T21:15:04.433Z,52
2018-04-19T21:30:05.405Z,52
2018-04-19T21:45:04.495Z,54
2018-04-19T22:00:05.245Z,50
2018-04-19T22:15:05.272Z,53
2018-04-19T22:30:04.901Z,49
2018-04-19T22:45:04.754Z,48
2018-04-19T23:00:05.566Z,49
2018-04-19T23:15:05.051Z,48
2018-04-19T23:30:05.160Z,47
2018-04-19T23:45:10.192Z,48
